sensor_id;sensor_type;location;lat;lon;timestamp;P1;durP1;ratioP1;P2;durP2;ratioP2
9884;SDS011;4981;50.966;4.842;2022-10-31T00:01:54;16.70;;;10.83;;
9884;SDS011;4981;50.966;4.842;2022-10-31T00:04:21;15.13;;;10.47;;
9884;SDS011;4981;50.966;4.842;2022-10-31T00:06:48;17.83;;;11.57;;
9884;SDS011;4981;50.966;4.842;2022-10-31T00:09:15;18.37;;;11.17;;
9884;SDS011;4981;50.966;4.842;2022-10-31T00:11:42;16.13;;;11.40;;
9884;SDS011;4981;50.966;4.842;2022-10-31T00:14:09;15.83;;;11.07;;
9884;SDS011;4981;50.966;4.842;2022-10-31T00:16:38;18.67;;;11.57;;
9884;SDS011;4981;50.966;4.842;2022-10-31T00:19:06;18.60;;;12.07;;
9884;SDS011;4981;50.966;4.842;2022-10-31T00:21:34;16.50;;;11.33;;
9884;SDS011;4981;50.966;4.842;2022-10-31T00:24:02;17.17;;;11.50;;
9884;SDS011;4981;50.966;4.842;2022-10-31T00:26:29;17.63;;;11.40;;
9884;SDS011;4981;50.966;4.842;2022-10-31T00:28:57;19.67;;;10.77;;
9884;SDS011;4981;50.966;4.842;2022-10-31T00:31:24;17.23;;;10.77;;
9884;SDS011;4981;50.966;4.842;2022-10-31T00:33:52;15.73;;;10.50;;
9884;SDS011;4981;50.966;4.842;2022-10-31T00:36:20;16.57;;;10.80;;
9884;SDS011;4981;50.966;4.842;2022-10-31T00:38:47;17.10;;;10.10;;
9884;SDS011;4981;50.966;4.842;2022-10-31T00:41:15;16.87;;;10.10;;
9884;SDS011;4981;50.966;4.842;2022-10-31T00:43:43;15.43;;;10.70;;
9884;SDS011;4981;50.966;4.842;2022-10-31T00:46:12;14.67;;;10.03;;
9884;SDS011;4981;50.966;4.842;2022-10-31T00:48:39;25.87;;;11.53;;
9884;SDS011;4981;50.966;4.842;2022-10-31T00:51:08;12.93;;;10.40;;
9884;SDS011;4981;50.966;4.842;2022-10-31T00:53:36;17.57;;;11.00;;
9884;SDS011;4981;50.966;4.842;2022-10-31T00:56:03;20.63;;;10.77;;
9884;SDS011;4981;50.966;4.842;2022-10-31T00:58:31;18.23;;;10.80;;
9884;SDS011;4981;50.966;4.842;2022-10-31T01:00:59;16.87;;;10.13;;
9884;SDS011;4981;50.966;4.842;2022-10-31T01:03:26;15.50;;;10.57;;
9884;SDS011;4981;50.966;4.842;2022-10-31T01:05:56;14.03;;;10.50;;
9884;SDS011;4981;50.966;4.842;2022-10-31T01:08:25;14.80;;;10.33;;
9884;SDS011;4981;50.966;4.842;2022-10-31T01:11:00;15.77;;;10.17;;
9884;SDS011;4981;50.966;4.842;2022-10-31T01:13:28;13.70;;;10.07;;
9884;SDS011;4981;50.966;4.842;2022-10-31T01:15:55;14.50;;;10.10;;
9884;SDS011;4981;50.966;4.842;2022-10-31T01:18:23;16.73;;;9.90;;
9884;SDS011;4981;50.966;4.842;2022-10-31T01:20:56;15.17;;;10.20;;
9884;SDS011;4981;50.966;4.842;2022-10-31T01:23:28;17.23;;;11.17;;
9884;SDS011;4981;50.966;4.842;2022-10-31T01:25:59;14.93;;;9.77;;
9884;SDS011;4981;50.966;4.842;2022-10-31T01:28:27;14.40;;;10.07;;
9884;SDS011;4981;50.966;4.842;2022-10-31T01:30:55;14.20;;;9.77;;
9884;SDS011;4981;50.966;4.842;2022-10-31T01:33:26;14.53;;;9.57;;
9884;SDS011;4981;50.966;4.842;2022-10-31T01:35:54;13.30;;;10.20;;
9884;SDS011;4981;50.966;4.842;2022-10-31T01:38:21;21.07;;;11.23;;
9884;SDS011;4981;50.966;4.842;2022-10-31T01:40:49;14.90;;;9.47;;
9884;SDS011;4981;50.966;4.842;2022-10-31T01:43:17;16.53;;;9.87;;
9884;SDS011;4981;50.966;4.842;2022-10-31T01:45:44;16.93;;;10.50;;
9884;SDS011;4981;50.966;4.842;2022-10-31T01:48:17;21.27;;;11.07;;
9884;SDS011;4981;50.966;4.842;2022-10-31T01:50:48;14.00;;;10.13;;
9884;SDS011;4981;50.966;4.842;2022-10-31T01:53:18;18.17;;;11.50;;
9884;SDS011;4981;50.966;4.842;2022-10-31T01:55:45;17.43;;;10.70;;
9884;SDS011;4981;50.966;4.842;2022-10-31T01:58:16;15.93;;;11.50;;
9884;SDS011;4981;50.966;4.842;2022-10-31T02:00:48;17.07;;;12.93;;
9884;SDS011;4981;50.966;4.842;2022-10-31T02:03:18;20.73;;;12.77;;
9884;SDS011;4981;50.966;4.842;2022-10-31T02:05:46;16.33;;;12.60;;
9884;SDS011;4981;50.966;4.842;2022-10-31T02:08:15;22.10;;;12.43;;
9884;SDS011;4981;50.966;4.842;2022-10-31T02:10:46;24.73;;;13.53;;
9884;SDS011;4981;50.966;4.842;2022-10-31T02:13:14;22.97;;;13.10;;
9884;SDS011;4981;50.966;4.842;2022-10-31T02:15:42;18.73;;;13.27;;
9884;SDS011;4981;50.966;4.842;2022-10-31T02:18:11;21.57;;;12.20;;
9884;SDS011;4981;50.966;4.842;2022-10-31T02:20:41;18.87;;;12.53;;
9884;SDS011;4981;50.966;4.842;2022-10-31T02:23:31;16.33;;;12.07;;
9884;SDS011;4981;50.966;4.842;2022-10-31T02:26:24;21.63;;;12.47;;
9884;SDS011;4981;50.966;4.842;2022-10-31T02:32:22;16.73;;;11.17;;
9884;SDS011;4981;50.966;4.842;2022-10-31T02:34:56;14.57;;;11.23;;
9884;SDS011;4981;50.966;4.842;2022-10-31T02:37:26;17.87;;;12.03;;
9884;SDS011;4981;50.966;4.842;2022-10-31T02:40:03;15.13;;;11.63;;
9884;SDS011;4981;50.966;4.842;2022-10-31T02:42:36;13.67;;;10.23;;
9884;SDS011;4981;50.966;4.842;2022-10-31T02:45:11;15.57;;;10.67;;
9884;SDS011;4981;50.966;4.842;2022-10-31T02:47:45;12.17;;;10.00;;
9884;SDS011;4981;50.966;4.842;2022-10-31T02:50:16;14.90;;;10.90;;
9884;SDS011;4981;50.966;4.842;2022-10-31T02:52:49;15.50;;;10.70;;
9884;SDS011;4981;50.966;4.842;2022-10-31T02:58:14;18.80;;;11.43;;
9884;SDS011;4981;50.966;4.842;2022-10-31T03:00:46;14.40;;;11.17;;
9884;SDS011;4981;50.966;4.842;2022-10-31T03:03:22;17.40;;;10.23;;
9884;SDS011;4981;50.966;4.842;2022-10-31T03:05:57;15.30;;;10.10;;
9884;SDS011;4981;50.966;4.842;2022-10-31T03:08:29;13.70;;;10.00;;
9884;SDS011;4981;50.966;4.842;2022-10-31T03:11:02;12.63;;;9.80;;
9884;SDS011;4981;50.966;4.842;2022-10-31T03:13:32;14.20;;;10.47;;
9884;SDS011;4981;50.966;4.842;2022-10-31T03:16:06;14.47;;;9.97;;
9884;SDS011;4981;50.966;4.842;2022-10-31T03:18:40;16.97;;;9.97;;
9884;SDS011;4981;50.966;4.842;2022-10-31T03:21:14;15.03;;;9.63;;
9884;SDS011;4981;50.966;4.842;2022-10-31T03:23:46;13.80;;;9.50;;
9884;SDS011;4981;50.966;4.842;2022-10-31T03:26:16;16.87;;;10.80;;
9884;SDS011;4981;50.966;4.842;2022-10-31T03:28:46;18.90;;;11.53;;
9884;SDS011;4981;50.966;4.842;2022-10-31T03:31:16;16.10;;;10.37;;
9884;SDS011;4981;50.966;4.842;2022-10-31T03:33:47;14.17;;;10.30;;
9884;SDS011;4981;50.966;4.842;2022-10-31T03:36:15;14.10;;;9.93;;
9884;SDS011;4981;50.966;4.842;2022-10-31T03:38:44;15.73;;;10.40;;
9884;SDS011;4981;50.966;4.842;2022-10-31T03:41:14;17.03;;;10.17;;
9884;SDS011;4981;50.966;4.842;2022-10-31T03:43:47;16.77;;;10.30;;
9884;SDS011;4981;50.966;4.842;2022-10-31T03:46:18;13.67;;;10.30;;
9884;SDS011;4981;50.966;4.842;2022-10-31T03:48:47;15.27;;;10.70;;
9884;SDS011;4981;50.966;4.842;2022-10-31T03:51:15;15.73;;;10.90;;
9884;SDS011;4981;50.966;4.842;2022-10-31T03:53:47;18.30;;;10.53;;
9884;SDS011;4981;50.966;4.842;2022-10-31T03:56:19;10.37;;;9.17;;
9884;SDS011;4981;50.966;4.842;2022-10-31T03:58:52;14.17;;;9.67;;
9884;SDS011;4981;50.966;4.842;2022-10-31T04:01:24;14.93;;;9.70;;
9884;SDS011;4981;50.966;4.842;2022-10-31T04:03:57;15.43;;;9.30;;
9884;SDS011;4981;50.966;4.842;2022-10-31T04:06:25;17.30;;;9.73;;
9884;SDS011;4981;50.966;4.842;2022-10-31T04:08:53;14.67;;;10.33;;
9884;SDS011;4981;50.966;4.842;2022-10-31T04:11:23;15.30;;;9.97;;
9884;SDS011;4981;50.966;4.842;2022-10-31T04:13:54;15.93;;;10.60;;
9884;SDS011;4981;50.966;4.842;2022-10-31T04:16:23;13.37;;;9.90;;
9884;SDS011;4981;50.966;4.842;2022-10-31T04:18:51;15.63;;;8.77;;
9884;SDS011;4981;50.966;4.842;2022-10-31T04:21:20;15.53;;;9.20;;
9884;SDS011;4981;50.966;4.842;2022-10-31T04:23:54;15.17;;;9.23;;
9884;SDS011;4981;50.966;4.842;2022-10-31T04:26:21;16.63;;;10.37;;
9884;SDS011;4981;50.966;4.842;2022-10-31T04:28:48;16.70;;;9.70;;
9884;SDS011;4981;50.966;4.842;2022-10-31T04:31:16;14.73;;;9.40;;
9884;SDS011;4981;50.966;4.842;2022-10-31T04:33:43;13.73;;;9.93;;
9884;SDS011;4981;50.966;4.842;2022-10-31T04:36:10;14.87;;;9.27;;
9884;SDS011;4981;50.966;4.842;2022-10-31T04:38:38;14.63;;;10.13;;
9884;SDS011;4981;50.966;4.842;2022-10-31T04:41:05;13.80;;;9.97;;
9884;SDS011;4981;50.966;4.842;2022-10-31T04:43:32;17.37;;;9.30;;
9884;SDS011;4981;50.966;4.842;2022-10-31T04:45:59;11.13;;;8.27;;
9884;SDS011;4981;50.966;4.842;2022-10-31T04:48:28;12.10;;;8.07;;
9884;SDS011;4981;50.966;4.842;2022-10-31T04:50:58;11.60;;;8.30;;
9884;SDS011;4981;50.966;4.842;2022-10-31T04:53:25;15.43;;;9.43;;
9884;SDS011;4981;50.966;4.842;2022-10-31T04:55:54;14.97;;;9.23;;
9884;SDS011;4981;50.966;4.842;2022-10-31T04:58:23;15.17;;;10.03;;
9884;SDS011;4981;50.966;4.842;2022-10-31T05:00:51;17.27;;;10.93;;
9884;SDS011;4981;50.966;4.842;2022-10-31T05:03:19;15.13;;;10.10;;
9884;SDS011;4981;50.966;4.842;2022-10-31T05:05:47;16.53;;;11.30;;
9884;SDS011;4981;50.966;4.842;2022-10-31T05:08:14;16.97;;;10.47;;
9884;SDS011;4981;50.966;4.842;2022-10-31T05:10:41;15.90;;;10.07;;
9884;SDS011;4981;50.966;4.842;2022-10-31T05:13:10;13.77;;;9.33;;
9884;SDS011;4981;50.966;4.842;2022-10-31T05:15:37;16.73;;;10.47;;
9884;SDS011;4981;50.966;4.842;2022-10-31T05:18:04;16.43;;;10.87;;
9884;SDS011;4981;50.966;4.842;2022-10-31T05:20:31;15.77;;;11.10;;
9884;SDS011;4981;50.966;4.842;2022-10-31T05:22:59;16.00;;;10.70;;
9884;SDS011;4981;50.966;4.842;2022-10-31T05:25:27;17.17;;;10.93;;
9884;SDS011;4981;50.966;4.842;2022-10-31T05:27:55;19.00;;;10.80;;
9884;SDS011;4981;50.966;4.842;2022-10-31T05:30:25;19.17;;;12.43;;
9884;SDS011;4981;50.966;4.842;2022-10-31T05:32:52;20.93;;;11.63;;
9884;SDS011;4981;50.966;4.842;2022-10-31T05:35:21;15.70;;;11.70;;
9884;SDS011;4981;50.966;4.842;2022-10-31T05:37:49;18.43;;;11.83;;
9884;SDS011;4981;50.966;4.842;2022-10-31T05:40:17;21.10;;;11.97;;
9884;SDS011;4981;50.966;4.842;2022-10-31T05:42:45;22.17;;;12.23;;
9884;SDS011;4981;50.966;4.842;2022-10-31T05:45:13;17.60;;;10.83;;
9884;SDS011;4981;50.966;4.842;2022-10-31T05:47:49;18.93;;;10.77;;
9884;SDS011;4981;50.966;4.842;2022-10-31T05:50:17;17.23;;;10.73;;
9884;SDS011;4981;50.966;4.842;2022-10-31T05:52:44;18.50;;;11.53;;
9884;SDS011;4981;50.966;4.842;2022-10-31T05:55:11;16.70;;;12.77;;
9884;SDS011;4981;50.966;4.842;2022-10-31T05:57:38;15.53;;;12.00;;
9884;SDS011;4981;50.966;4.842;2022-10-31T06:00:05;19.87;;;10.97;;
9884;SDS011;4981;50.966;4.842;2022-10-31T06:02:33;16.90;;;11.23;;
9884;SDS011;4981;50.966;4.842;2022-10-31T06:05:01;19.30;;;11.87;;
9884;SDS011;4981;50.966;4.842;2022-10-31T06:07:31;16.90;;;11.30;;
9884;SDS011;4981;50.966;4.842;2022-10-31T06:10:00;20.80;;;13.10;;
9884;SDS011;4981;50.966;4.842;2022-10-31T06:12:29;17.23;;;11.53;;
9884;SDS011;4981;50.966;4.842;2022-10-31T06:14:56;20.03;;;13.63;;
9884;SDS011;4981;50.966;4.842;2022-10-31T06:17:23;25.40;;;14.47;;
9884;SDS011;4981;50.966;4.842;2022-10-31T06:19:50;23.67;;;13.57;;
9884;SDS011;4981;50.966;4.842;2022-10-31T06:22:18;22.87;;;13.73;;
9884;SDS011;4981;50.966;4.842;2022-10-31T06:24:46;24.57;;;13.93;;
9884;SDS011;4981;50.966;4.842;2022-10-31T06:27:13;22.97;;;12.67;;
9884;SDS011;4981;50.966;4.842;2022-10-31T06:29:40;20.80;;;12.97;;
9884;SDS011;4981;50.966;4.842;2022-10-31T06:32:09;19.60;;;12.93;;
9884;SDS011;4981;50.966;4.842;2022-10-31T06:34:36;20.10;;;13.80;;
9884;SDS011;4981;50.966;4.842;2022-10-31T06:37:05;17.60;;;13.83;;
9884;SDS011;4981;50.966;4.842;2022-10-31T06:39:34;25.13;;;14.40;;
9884;SDS011;4981;50.966;4.842;2022-10-31T06:42:02;19.60;;;13.90;;
9884;SDS011;4981;50.966;4.842;2022-10-31T06:44:30;21.20;;;14.17;;
9884;SDS011;4981;50.966;4.842;2022-10-31T06:46:57;21.40;;;14.63;;
9884;SDS011;4981;50.966;4.842;2022-10-31T06:49:24;23.10;;;14.17;;
9884;SDS011;4981;50.966;4.842;2022-10-31T06:51:51;24.07;;;14.40;;
9884;SDS011;4981;50.966;4.842;2022-10-31T06:54:18;21.53;;;14.07;;
9884;SDS011;4981;50.966;4.842;2022-10-31T06:56:47;22.67;;;14.17;;
9884;SDS011;4981;50.966;4.842;2022-10-31T06:59:15;20.60;;;15.03;;
9884;SDS011;4981;50.966;4.842;2022-10-31T07:01:42;21.63;;;13.77;;
9884;SDS011;4981;50.966;4.842;2022-10-31T07:04:10;20.50;;;14.13;;
9884;SDS011;4981;50.966;4.842;2022-10-31T07:06:37;22.50;;;15.00;;
9884;SDS011;4981;50.966;4.842;2022-10-31T07:09:04;19.10;;;14.13;;
9884;SDS011;4981;50.966;4.842;2022-10-31T07:11:32;17.00;;;13.10;;
9884;SDS011;4981;50.966;4.842;2022-10-31T07:14:01;21.63;;;14.73;;
9884;SDS011;4981;50.966;4.842;2022-10-31T07:16:28;19.30;;;14.57;;
9884;SDS011;4981;50.966;4.842;2022-10-31T07:18:55;22.03;;;15.20;;
9884;SDS011;4981;50.966;4.842;2022-10-31T07:21:22;22.47;;;13.63;;
9884;SDS011;4981;50.966;4.842;2022-10-31T07:23:49;20.97;;;13.93;;
9884;SDS011;4981;50.966;4.842;2022-10-31T07:26:16;25.77;;;14.23;;
9884;SDS011;4981;50.966;4.842;2022-10-31T07:28:43;25.37;;;15.83;;
9884;SDS011;4981;50.966;4.842;2022-10-31T07:31:13;20.00;;;14.60;;
9884;SDS011;4981;50.966;4.842;2022-10-31T07:33:40;19.90;;;15.07;;
9884;SDS011;4981;50.966;4.842;2022-10-31T07:36:07;21.27;;;15.23;;
9884;SDS011;4981;50.966;4.842;2022-10-31T07:38:34;18.80;;;14.33;;
9884;SDS011;4981;50.966;4.842;2022-10-31T07:41:00;20.40;;;13.63;;
9884;SDS011;4981;50.966;4.842;2022-10-31T07:43:27;23.37;;;14.33;;
9884;SDS011;4981;50.966;4.842;2022-10-31T07:45:55;23.37;;;14.83;;
9884;SDS011;4981;50.966;4.842;2022-10-31T07:48:23;20.63;;;14.73;;
9884;SDS011;4981;50.966;4.842;2022-10-31T07:50:50;21.60;;;14.27;;
9884;SDS011;4981;50.966;4.842;2022-10-31T07:53:17;21.43;;;14.27;;
9884;SDS011;4981;50.966;4.842;2022-10-31T07:55:44;21.77;;;15.20;;
9884;SDS011;4981;50.966;4.842;2022-10-31T07:58:11;25.33;;;16.03;;
9884;SDS011;4981;50.966;4.842;2022-10-31T08:00:40;25.23;;;15.77;;
9884;SDS011;4981;50.966;4.842;2022-10-31T08:03:08;22.30;;;14.40;;
9884;SDS011;4981;50.966;4.842;2022-10-31T08:05:37;19.73;;;14.63;;
9884;SDS011;4981;50.966;4.842;2022-10-31T08:08:06;20.60;;;13.87;;
9884;SDS011;4981;50.966;4.842;2022-10-31T08:10:34;19.97;;;14.97;;
9884;SDS011;4981;50.966;4.842;2022-10-31T08:13:02;15.70;;;12.97;;
9884;SDS011;4981;50.966;4.842;2022-10-31T08:15:29;19.30;;;13.57;;
9884;SDS011;4981;50.966;4.842;2022-10-31T08:17:59;19.83;;;13.80;;
9884;SDS011;4981;50.966;4.842;2022-10-31T08:20:27;19.90;;;14.80;;
9884;SDS011;4981;50.966;4.842;2022-10-31T08:22:56;18.23;;;13.20;;
9884;SDS011;4981;50.966;4.842;2022-10-31T08:25:24;17.73;;;13.40;;
9884;SDS011;4981;50.966;4.842;2022-10-31T08:27:52;19.00;;;13.27;;
9884;SDS011;4981;50.966;4.842;2022-10-31T08:30:21;21.03;;;14.00;;
9884;SDS011;4981;50.966;4.842;2022-10-31T08:32:56;19.67;;;13.67;;
9884;SDS011;4981;50.966;4.842;2022-10-31T08:35:23;20.23;;;14.23;;
9884;SDS011;4981;50.966;4.842;2022-10-31T08:37:51;23.87;;;14.57;;
9884;SDS011;4981;50.966;4.842;2022-10-31T08:40:21;22.27;;;14.50;;
9884;SDS011;4981;50.966;4.842;2022-10-31T08:42:55;19.57;;;14.67;;
9884;SDS011;4981;50.966;4.842;2022-10-31T08:45:23;23.67;;;14.50;;
9884;SDS011;4981;50.966;4.842;2022-10-31T08:47:50;19.13;;;14.47;;
9884;SDS011;4981;50.966;4.842;2022-10-31T08:50:18;30.30;;;14.50;;
9884;SDS011;4981;50.966;4.842;2022-10-31T08:52:45;25.77;;;14.40;;
9884;SDS011;4981;50.966;4.842;2022-10-31T08:55:12;19.73;;;14.53;;
9884;SDS011;4981;50.966;4.842;2022-10-31T08:57:41;20.40;;;15.07;;
9884;SDS011;4981;50.966;4.842;2022-10-31T09:00:08;16.77;;;10.23;;
9884;SDS011;4981;50.966;4.842;2022-10-31T09:02:36;19.97;;;13.37;;
9884;SDS011;4981;50.966;4.842;2022-10-31T09:05:04;19.27;;;13.87;;
9884;SDS011;4981;50.966;4.842;2022-10-31T09:07:31;24.53;;;14.20;;
9884;SDS011;4981;50.966;4.842;2022-10-31T09:09:58;22.97;;;14.07;;
9884;SDS011;4981;50.966;4.842;2022-10-31T09:12:25;21.80;;;14.10;;
9884;SDS011;4981;50.966;4.842;2022-10-31T09:14:53;24.00;;;14.30;;
9884;SDS011;4981;50.966;4.842;2022-10-31T09:17:25;20.80;;;14.70;;
9884;SDS011;4981;50.966;4.842;2022-10-31T09:19:54;21.93;;;14.80;;
9884;SDS011;4981;50.966;4.842;2022-10-31T09:22:22;17.93;;;10.83;;
9884;SDS011;4981;50.966;4.842;2022-10-31T09:24:49;23.23;;;14.77;;
9884;SDS011;4981;50.966;4.842;2022-10-31T09:27:16;24.70;;;15.40;;
9884;SDS011;4981;50.966;4.842;2022-10-31T09:29:43;22.10;;;14.80;;
9884;SDS011;4981;50.966;4.842;2022-10-31T09:32:12;23.67;;;13.93;;
9884;SDS011;4981;50.966;4.842;2022-10-31T09:34:40;21.10;;;13.47;;
9884;SDS011;4981;50.966;4.842;2022-10-31T09:37:07;21.53;;;13.13;;
9884;SDS011;4981;50.966;4.842;2022-10-31T09:39:34;20.77;;;13.33;;
9884;SDS011;4981;50.966;4.842;2022-10-31T09:42:05;22.27;;;15.03;;
9884;SDS011;4981;50.966;4.842;2022-10-31T09:44:46;21.27;;;13.67;;
9884;SDS011;4981;50.966;4.842;2022-10-31T09:47:23;20.30;;;13.60;;
9884;SDS011;4981;50.966;4.842;2022-10-31T09:50:07;22.43;;;14.30;;
9884;SDS011;4981;50.966;4.842;2022-10-31T09:52:43;21.10;;;14.13;;
9884;SDS011;4981;50.966;4.842;2022-10-31T09:55:19;20.00;;;13.80;;
9884;SDS011;4981;50.966;4.842;2022-10-31T09:57:52;21.90;;;13.87;;
9884;SDS011;4981;50.966;4.842;2022-10-31T10:00:20;22.00;;;13.40;;
9884;SDS011;4981;50.966;4.842;2022-10-31T10:02:51;22.17;;;14.50;;
9884;SDS011;4981;50.966;4.842;2022-10-31T10:05:23;25.53;;;14.07;;
9884;SDS011;4981;50.966;4.842;2022-10-31T10:07:57;22.97;;;13.20;;
9884;SDS011;4981;50.966;4.842;2022-10-31T10:10:30;24.03;;;14.47;;
9884;SDS011;4981;50.966;4.842;2022-10-31T10:13:08;22.40;;;13.23;;
9884;SDS011;4981;50.966;4.842;2022-10-31T10:15:56;20.67;;;13.60;;
9884;SDS011;4981;50.966;4.842;2022-10-31T10:18:45;23.30;;;13.97;;
9884;SDS011;4981;50.966;4.842;2022-10-31T10:21:25;25.07;;;14.93;;
9884;SDS011;4981;50.966;4.842;2022-10-31T10:24:11;21.83;;;14.03;;
9884;SDS011;4981;50.966;4.842;2022-10-31T10:26:46;21.10;;;14.23;;
9884;SDS011;4981;50.966;4.842;2022-10-31T10:29:24;25.53;;;14.53;;
9884;SDS011;4981;50.966;4.842;2022-10-31T10:31:58;22.80;;;13.77;;
9884;SDS011;4981;50.966;4.842;2022-10-31T10:34:29;19.10;;;13.13;;
9884;SDS011;4981;50.966;4.842;2022-10-31T10:37:02;27.07;;;14.83;;
9884;SDS011;4981;50.966;4.842;2022-10-31T10:39:32;22.43;;;13.97;;
9884;SDS011;4981;50.966;4.842;2022-10-31T10:42:07;23.57;;;14.20;;
9884;SDS011;4981;50.966;4.842;2022-10-31T10:44:54;21.27;;;14.77;;
9884;SDS011;4981;50.966;4.842;2022-10-31T10:47:40;20.03;;;13.73;;
9884;SDS011;4981;50.966;4.842;2022-10-31T10:50:12;18.90;;;14.47;;
9884;SDS011;4981;50.966;4.842;2022-10-31T10:52:44;22.27;;;13.97;;
9884;SDS011;4981;50.966;4.842;2022-10-31T10:55:22;23.27;;;13.73;;
9884;SDS011;4981;50.966;4.842;2022-10-31T10:57:55;21.17;;;14.13;;
9884;SDS011;4981;50.966;4.842;2022-10-31T11:00:25;24.20;;;14.53;;
9884;SDS011;4981;50.966;4.842;2022-10-31T11:02:53;26.43;;;14.70;;
9884;SDS011;4981;50.966;4.842;2022-10-31T11:05:28;22.47;;;14.80;;
9884;SDS011;4981;50.966;4.842;2022-10-31T11:08:00;22.60;;;14.27;;
9884;SDS011;4981;50.966;4.842;2022-10-31T11:10:27;22.77;;;14.23;;
9884;SDS011;4981;50.966;4.842;2022-10-31T11:12:58;21.07;;;13.00;;
9884;SDS011;4981;50.966;4.842;2022-10-31T11:15:29;22.07;;;12.57;;
9884;SDS011;4981;50.966;4.842;2022-10-31T11:17:59;23.23;;;12.53;;
9884;SDS011;4981;50.966;4.842;2022-10-31T11:20:29;21.93;;;11.83;;
9884;SDS011;4981;50.966;4.842;2022-10-31T11:23:03;12.70;;;8.50;;
9884;SDS011;4981;50.966;4.842;2022-10-31T11:25:32;15.57;;;11.60;;
9884;SDS011;4981;50.966;4.842;2022-10-31T11:27:59;16.77;;;10.40;;
9884;SDS011;4981;50.966;4.842;2022-10-31T11:30:26;15.37;;;10.10;;
9884;SDS011;4981;50.966;4.842;2022-10-31T11:32:55;16.03;;;9.67;;
9884;SDS011;4981;50.966;4.842;2022-10-31T11:35:23;17.20;;;9.80;;
9884;SDS011;4981;50.966;4.842;2022-10-31T11:37:53;19.97;;;9.60;;
9884;SDS011;4981;50.966;4.842;2022-10-31T11:40:25;14.20;;;9.13;;
9884;SDS011;4981;50.966;4.842;2022-10-31T11:42:54;18.40;;;9.77;;
9884;SDS011;4981;50.966;4.842;2022-10-31T11:45:30;15.73;;;10.47;;
9884;SDS011;4981;50.966;4.842;2022-10-31T11:47:59;16.60;;;9.97;;
9884;SDS011;4981;50.966;4.842;2022-10-31T11:50:30;18.70;;;9.93;;
9884;SDS011;4981;50.966;4.842;2022-10-31T11:53:01;15.73;;;9.90;;
9884;SDS011;4981;50.966;4.842;2022-10-31T11:55:31;14.77;;;9.90;;
9884;SDS011;4981;50.966;4.842;2022-10-31T11:57:59;16.37;;;9.00;;
9884;SDS011;4981;50.966;4.842;2022-10-31T12:00:27;10.43;;;5.50;;
9884;SDS011;4981;50.966;4.842;2022-10-31T12:03:10;15.80;;;9.00;;
9884;SDS011;4981;50.966;4.842;2022-10-31T12:05:40;13.43;;;8.57;;
9884;SDS011;4981;50.966;4.842;2022-10-31T12:08:11;15.27;;;7.80;;
9884;SDS011;4981;50.966;4.842;2022-10-31T12:10:40;12.73;;;7.97;;
9884;SDS011;4981;50.966;4.842;2022-10-31T12:13:21;9.00;;;5.87;;
9884;SDS011;4981;50.966;4.842;2022-10-31T12:15:59;6.47;;;5.20;;
9884;SDS011;4981;50.966;4.842;2022-10-31T12:18:39;18.43;;;8.40;;
9884;SDS011;4981;50.966;4.842;2022-10-31T12:21:24;8.83;;;4.80;;
9884;SDS011;4981;50.966;4.842;2022-10-31T12:24:12;16.07;;;7.80;;
9884;SDS011;4981;50.966;4.842;2022-10-31T12:26:51;12.63;;;8.63;;
9884;SDS011;4981;50.966;4.842;2022-10-31T12:29:32;13.27;;;8.27;;
9884;SDS011;4981;50.966;4.842;2022-10-31T12:32:20;15.30;;;8.70;;
9884;SDS011;4981;50.966;4.842;2022-10-31T12:35:05;17.40;;;8.80;;
9884;SDS011;4981;50.966;4.842;2022-10-31T12:37:53;12.43;;;7.70;;
9884;SDS011;4981;50.966;4.842;2022-10-31T12:40:35;14.57;;;8.30;;
9884;SDS011;4981;50.966;4.842;2022-10-31T12:43:19;13.88;;;9.10;;
9884;SDS011;4981;50.966;4.842;2022-10-31T12:45:56;13.17;;;7.97;;
9884;SDS011;4981;50.966;4.842;2022-10-31T12:48:30;11.90;;;8.07;;
9884;SDS011;4981;50.966;4.842;2022-10-31T12:51:11;15.37;;;8.63;;
9884;SDS011;4981;50.966;4.842;2022-10-31T12:53:48;19.30;;;8.90;;
9884;SDS011;4981;50.966;4.842;2022-10-31T12:56:31;15.97;;;6.83;;
9884;SDS011;4981;50.966;4.842;2022-10-31T12:59:07;15.70;;;8.32;;
9884;SDS011;4981;50.966;4.842;2022-10-31T13:01:39;8.57;;;5.37;;
9884;SDS011;4981;50.966;4.842;2022-10-31T13:04:14;10.45;;;5.85;;
9884;SDS011;4981;50.966;4.842;2022-10-31T13:06:47;14.80;;;8.67;;
9884;SDS011;4981;50.966;4.842;2022-10-31T13:09:18;18.20;;;8.17;;
9884;SDS011;4981;50.966;4.842;2022-10-31T13:11:50;11.10;;;6.57;;
9884;SDS011;4981;50.966;4.842;2022-10-31T13:14:23;16.47;;;8.20;;
9884;SDS011;4981;50.966;4.842;2022-10-31T13:16:53;13.68;;;7.93;;
9884;SDS011;4981;50.966;4.842;2022-10-31T13:19:22;14.75;;;7.78;;
9884;SDS011;4981;50.966;4.842;2022-10-31T13:21:54;15.70;;;7.88;;
9884;SDS011;4981;50.966;4.842;2022-10-31T13:24:26;13.02;;;7.40;;
9884;SDS011;4981;50.966;4.842;2022-10-31T13:27:02;10.68;;;8.00;;
9884;SDS011;4981;50.966;4.842;2022-10-31T13:29:36;8.43;;;4.78;;
9884;SDS011;4981;50.966;4.842;2022-10-31T13:32:06;14.50;;;7.18;;
9884;SDS011;4981;50.966;4.842;2022-10-31T13:34:35;9.90;;;5.63;;
9884;SDS011;4981;50.966;4.842;2022-10-31T13:37:05;16.85;;;7.03;;
9884;SDS011;4981;50.966;4.842;2022-10-31T13:39:45;16.67;;;7.47;;
9884;SDS011;4981;50.966;4.842;2022-10-31T13:42:20;14.25;;;6.72;;
9884;SDS011;4981;50.966;4.842;2022-10-31T13:44:53;13.35;;;7.65;;
9884;SDS011;4981;50.966;4.842;2022-10-31T13:47:21;16.35;;;6.97;;
9884;SDS011;4981;50.966;4.842;2022-10-31T13:49:50;15.33;;;7.37;;
9884;SDS011;4981;50.966;4.842;2022-10-31T13:52:22;10.07;;;5.18;;
9884;SDS011;4981;50.966;4.842;2022-10-31T13:54:51;13.40;;;7.33;;
9884;SDS011;4981;50.966;4.842;2022-10-31T13:57:25;18.83;;;6.40;;
9884;SDS011;4981;50.966;4.842;2022-10-31T13:59:58;13.98;;;7.68;;
9884;SDS011;4981;50.966;4.842;2022-10-31T14:02:33;16.25;;;8.02;;
9884;SDS011;4981;50.966;4.842;2022-10-31T14:05:03;9.57;;;4.90;;
9884;SDS011;4981;50.966;4.842;2022-10-31T14:07:33;13.70;;;6.53;;
9884;SDS011;4981;50.966;4.842;2022-10-31T14:10:01;10.77;;;6.33;;
9884;SDS011;4981;50.966;4.842;2022-10-31T14:12:33;12.03;;;7.20;;
9884;SDS011;4981;50.966;4.842;2022-10-31T14:15:04;16.92;;;8.20;;
9884;SDS011;4981;50.966;4.842;2022-10-31T14:17:45;16.63;;;7.95;;
9884;SDS011;4981;50.966;4.842;2022-10-31T14:20:22;18.35;;;8.43;;
9884;SDS011;4981;50.966;4.842;2022-10-31T14:22:58;12.97;;;7.70;;
9884;SDS011;4981;50.966;4.842;2022-10-31T14:25:36;16.73;;;8.03;;
9884;SDS011;4981;50.966;4.842;2022-10-31T14:28:17;18.30;;;8.80;;
9884;SDS011;4981;50.966;4.842;2022-10-31T14:30:50;12.33;;;7.53;;
9884;SDS011;4981;50.966;4.842;2022-10-31T14:33:18;12.87;;;5.87;;
9884;SDS011;4981;50.966;4.842;2022-10-31T14:35:48;16.23;;;8.43;;
9884;SDS011;4981;50.966;4.842;2022-10-31T14:38:33;17.67;;;8.35;;
9884;SDS011;4981;50.966;4.842;2022-10-31T14:41:20;12.80;;;6.70;;
9884;SDS011;4981;50.966;4.842;2022-10-31T14:44:23;13.70;;;7.43;;
9884;SDS011;4981;50.966;4.842;2022-10-31T14:47:08;17.85;;;7.90;;
9884;SDS011;4981;50.966;4.842;2022-10-31T14:49:48;13.00;;;7.13;;
9884;SDS011;4981;50.966;4.842;2022-10-31T14:52:28;16.03;;;7.70;;
9884;SDS011;4981;50.966;4.842;2022-10-31T14:54:55;10.18;;;7.38;;
9884;SDS011;4981;50.966;4.842;2022-10-31T14:57:25;15.93;;;7.43;;
9884;SDS011;4981;50.966;4.842;2022-10-31T14:59:57;19.00;;;7.27;;
9884;SDS011;4981;50.966;4.842;2022-10-31T15:02:29;13.30;;;7.33;;
9884;SDS011;4981;50.966;4.842;2022-10-31T15:05:01;13.20;;;7.27;;
9884;SDS011;4981;50.966;4.842;2022-10-31T15:07:33;15.97;;;7.07;;
9884;SDS011;4981;50.966;4.842;2022-10-31T15:10:01;12.80;;;7.47;;
9884;SDS011;4981;50.966;4.842;2022-10-31T15:12:30;16.30;;;7.43;;
9884;SDS011;4981;50.966;4.842;2022-10-31T15:15:11;14.00;;;7.37;;
9884;SDS011;4981;50.966;4.842;2022-10-31T15:17:41;13.93;;;7.20;;
9884;SDS011;4981;50.966;4.842;2022-10-31T15:20:16;14.38;;;7.93;;
9884;SDS011;4981;50.966;4.842;2022-10-31T15:22:45;15.10;;;7.97;;